createdAt,value
2022-12-07T00:01:10.074Z,2.57
2022-12-07T00:03:37.792Z,2.57
2022-12-07T00:06:05.796Z,2.56
2022-12-07T00:08:33.414Z,2.58
2022-12-07T00:11:04.791Z,2.59
2022-12-07T00:13:32.072Z,2.61
2022-12-07T00:16:09.770Z,2.61
2022-12-07T00:18:36.662Z,2.59
2022-12-07T00:21:05.776Z,2.62
2022-12-07T00:23:32.721Z,2.64
2022-12-07T00:26:10.297Z,2.64
2022-12-07T00:28:36.937Z,2.65
2022-12-07T00:31:13.972Z,2.66
2022-12-07T00:33:40.641Z,2.66
2022-12-07T00:36:10.792Z,2.68
2022-12-07T00:38:38.276Z,2.70
2022-12-07T00:41:12.214Z,2.71
2022-12-07T00:43:38.788Z,2.72
2022-12-07T00:46:05.438Z,2.73
2022-12-07T00:48:32.164Z,2.75
2022-12-07T00:50:58.907Z,2.77
2022-12-07T00:53:25.496Z,2.77
2022-12-07T00:55:53.430Z,2.76
2022-12-07T00:58:20.623Z,2.77
2022-12-07T01:00:47.123Z,2.78
2022-12-07T01:03:15.143Z,2.78
2022-12-07T01:05:41.607Z,2.77
2022-12-07T01:08:08.176Z,2.78
2022-12-07T01:10:34.651Z,2.75
2022-12-07T01:13:01.073Z,2.75
2022-12-07T01:15:27.513Z,2.73
2022-12-07T01:17:55.608Z,2.74
2022-12-07T01:20:22.509Z,2.74
2022-12-07T01:22:48.980Z,2.75
2022-12-07T01:25:15.679Z,2.76
2022-12-07T01:27:42.121Z,2.78
2022-12-07T01:30:10.619Z,2.79
2022-12-07T01:32:37.041Z,2.80
2022-12-07T01:35:03.613Z,2.83
2022-12-07T01:37:38.102Z,2.84
2022-12-07T01:40:08.084Z,2.86
2022-12-07T01:42:35.318Z,2.86
2022-12-07T01:45:41.130Z,2.90
2022-12-07T01:48:09.238Z,2.92
2022-12-07T01:50:36.273Z,2.95
2022-12-07T01:53:05.552Z,2.98
2022-12-07T01:55:31.980Z,3.00
2022-12-07T01:57:58.742Z,2.99
2022-12-07T02:00:25.170Z,2.98
2022-12-07T02:02:59.216Z,2.99
2022-12-07T02:05:26.687Z,3.01
2022-12-07T02:07:56.578Z,3.01
2022-12-07T02:10:25.870Z,3.02
2022-12-07T02:12:55.772Z,3.03
2022-12-07T02:15:23.422Z,3.06
2022-12-07T02:18:02.169Z,3.05
2022-12-07T02:20:38.786Z,3.07
2022-12-07T02:23:05.104Z,3.08
2022-12-07T02:25:39.313Z,3.07
2022-12-07T02:28:27.700Z,3.09
2022-12-07T02:30:56.016Z,3.12
2022-12-07T02:33:32.187Z,3.14
2022-12-07T02:36:03.305Z,3.15
2022-12-07T02:38:39.827Z,3.18
2022-12-07T02:41:26.481Z,3.18
2022-12-07T02:43:55.481Z,3.18
2022-12-07T02:46:26.745Z,3.21
2022-12-07T02:48:53.792Z,3.23
2022-12-07T02:51:20.308Z,3.25
2022-12-07T02:53:46.974Z,3.27
2022-12-07T02:56:23.237Z,3.27
2022-12-07T02:59:01.558Z,3.28
2022-12-07T03:01:46.319Z,3.31
2022-12-07T03:04:41.142Z,3.33
2022-12-07T03:07:16.639Z,3.34
2022-12-07T03:09:49.923Z,3.37
2022-12-07T03:12:22.046Z,3.37
2022-12-07T03:14:56.224Z,3.40
2022-12-07T03:17:26.491Z,3.43
2022-12-07T03:19:55.485Z,3.45
2022-12-07T03:22:22.883Z,3.47
2022-12-07T03:24:53.323Z,3.50
2022-12-07T03:27:23.203Z,3.53
2022-12-07T03:29:59.859Z,3.56
2022-12-07T03:32:40.702Z,3.61
2022-12-07T03:35:17.865Z,3.62
2022-12-07T03:37:52.797Z,3.67
2022-12-07T03:40:34.809Z,3.68
2022-12-07T03:43:02.657Z,3.71
2022-12-07T03:45:40.086Z,3.74
2022-12-07T03:48:12.667Z,3.77
2022-12-07T03:50:41.132Z,3.79
2022-12-07T03:53:15.410Z,3.77
2022-12-07T03:55:44.051Z,3.83
2022-12-07T03:58:12.919Z,3.88
2022-12-07T04:00:39.443Z,3.88
2022-12-07T04:03:05.935Z,3.91
2022-12-07T04:05:32.574Z,3.94
2022-12-07T04:07:59.070Z,3.96
2022-12-07T04:10:25.652Z,3.96
2022-12-07T04:12:52.066Z,3.96
2022-12-07T04:15:18.540Z,3.97
2022-12-07T04:17:44.953Z,3.96
2022-12-07T04:20:12.114Z,3.96
2022-12-07T04:22:38.689Z,3.95
2022-12-07T04:25:05.547Z,3.98
2022-12-07T04:27:31.996Z,3.99
2022-12-07T04:29:58.418Z,3.97
2022-12-07T04:32:25.084Z,3.98
2022-12-07T04:34:55.427Z,4.00
2022-12-07T04:37:22.850Z,4.00
2022-12-07T04:39:49.274Z,4.01
2022-12-07T04:42:15.784Z,4.03
2022-12-07T04:44:42.403Z,4.01
2022-12-07T04:47:08.893Z,4.03
2022-12-07T04:49:35.506Z,4.05
2022-12-07T04:52:01.978Z,4.05
2022-12-07T04:54:28.458Z,4.04
2022-12-07T04:56:54.870Z,4.05
2022-12-07T04:59:21.285Z,4.06
2022-12-07T05:01:47.783Z,4.05
2022-12-07T05:04:14.290Z,4.06
2022-12-07T05:06:40.702Z,4.07
2022-12-07T05:09:07.169Z,4.06
2022-12-07T05:11:39.482Z,4.07
2022-12-07T05:14:15.259Z,4.06
2022-12-07T05:16:43.307Z,4.05
2022-12-07T05:19:10.187Z,4.06
2022-12-07T05:21:37.239Z,4.07
2022-12-07T05:24:04.470Z,4.07
2022-12-07T05:26:31.094Z,4.08
2022-12-07T05:28:58.059Z,4.10
2022-12-07T05:31:26.311Z,4.11
2022-12-07T05:33:52.949Z,4.09
2022-12-07T05:36:19.434Z,4.11
2022-12-07T05:38:45.884Z,4.11
2022-12-07T05:41:34.370Z,4.14
2022-12-07T05:44:01.176Z,4.16
2022-12-07T05:46:27.871Z,4.18
2022-12-07T05:48:54.320Z,4.20
2022-12-07T05:51:20.891Z,4.23
2022-12-07T05:53:47.307Z,4.23
2022-12-07T05:56:13.812Z,4.24
2022-12-07T05:58:58.698Z,4.26
2022-12-07T06:01:25.105Z,4.28
2022-12-07T06:03:51.535Z,4.29
2022-12-07T06:06:18.060Z,4.31
2022-12-07T06:08:44.518Z,4.32
2022-12-07T06:11:29.446Z,4.34
2022-12-07T06:13:55.889Z,4.35
2022-12-07T06:16:22.509Z,4.39
2022-12-07T06:18:48.972Z,4.38
2022-12-07T06:21:15.419Z,4.40
2022-12-07T06:23:41.887Z,4.40
2022-12-07T06:26:08.326Z,4.40
2022-12-07T06:28:34.748Z,4.41
2022-12-07T06:31:02.232Z,4.41
2022-12-07T06:33:29.431Z,4.43
2022-12-07T06:35:56.070Z,4.45
2022-12-07T06:38:22.519Z,4.45
2022-12-07T06:40:49.239Z,4.39
2022-12-07T06:43:15.688Z,4.41
2022-12-07T06:45:42.500Z,4.43
2022-12-07T06:48:08.956Z,4.45
2022-12-07T06:50:35.478Z,4.42
2022-12-07T06:53:01.912Z,4.42
2022-12-07T06:55:28.320Z,4.44
2022-12-07T06:57:54.756Z,4.43
2022-12-07T07:00:22.316Z,4.43
2022-12-07T07:02:49.233Z,4.43
2022-12-07T07:05:16.703Z,4.46
2022-12-07T07:08:19.715Z,4.45
2022-12-07T07:10:29.659Z,4.45
2022-12-07T07:12:57.760Z,4.41
2022-12-07T07:15:24.436Z,4.41
2022-12-07T07:17:50.839Z,4.40
2022-12-07T07:20:17.333Z,4.42
2022-12-07T07:22:43.813Z,4.38
2022-12-07T07:25:10.210Z,4.40
2022-12-07T07:27:36.672Z,4.43
2022-12-07T07:30:04.236Z,4.42
2022-12-07T07:32:30.952Z,4.41
2022-12-07T07:34:57.412Z,4.42
2022-12-07T07:37:23.956Z,4.41
2022-12-07T07:39:50.404Z,4.38
2022-12-07T07:42:16.857Z,4.43
2022-12-07T07:44:43.275Z,4.45
2022-12-07T07:47:09.717Z,4.46
2022-12-07T07:49:36.152Z,4.43
2022-12-07T07:52:02.616Z,4.46
2022-12-07T07:54:29.045Z,4.45
2022-12-07T07:56:55.494Z,4.45
2022-12-07T07:59:21.929Z,4.51
2022-12-07T08:01:48.375Z,4.51
2022-12-07T08:04:14.903Z,4.50
2022-12-07T08:06:43.077Z,4.52
2022-12-07T08:09:10.196Z,4.53
2022-12-07T08:11:37.509Z,4.55
2022-12-07T08:14:04.188Z,4.55
2022-12-07T08:16:30.685Z,4.58
2022-12-07T08:18:57.310Z,4.59
2022-12-07T08:21:23.749Z,4.58
2022-12-07T08:23:50.209Z,4.63
2022-12-07T08:26:17.695Z,4.65
2022-12-07T08:28:44.463Z,4.68
2022-12-07T08:31:16.848Z,4.69
2022-12-07T08:33:43.374Z,4.73
2022-12-07T08:36:11.863Z,4.78
2022-12-07T08:38:39.641Z,4.73
2022-12-07T08:41:06.815Z,4.80
2022-12-07T08:43:33.572Z,4.86
2022-12-07T08:46:08.231Z,4.89
2022-12-07T08:48:37.517Z,4.94
2022-12-07T08:51:04.039Z,4.95
2022-12-07T08:53:30.863Z,4.94
2022-12-07T08:55:57.661Z,4.93
2022-12-07T08:58:24.127Z,4.95
2022-12-07T09:00:50.698Z,4.96
2022-12-07T09:03:17.208Z,4.98
2022-12-07T09:05:43.717Z,4.97
2022-12-07T09:08:10.289Z,5.00
2022-12-07T09:10:36.907Z,5.00
2022-12-07T09:13:03.354Z,4.94
2022-12-07T09:15:30.291Z,5.01
2022-12-07T09:17:56.761Z,4.99
2022-12-07T09:20:27.788Z,5.00
2022-12-07T09:22:54.787Z,5.03
2022-12-07T09:25:21.232Z,5.06
2022-12-07T09:27:47.660Z,5.08
2022-12-07T09:30:14.340Z,5.12
2022-12-07T09:32:40.812Z,5.13
2022-12-07T09:35:07.789Z,5.12
2022-12-07T09:37:37.078Z,5.09
2022-12-07T09:40:05.430Z,5.13
2022-12-07T09:42:38.417Z,5.17
2022-12-07T09:45:13.451Z,5.19
2022-12-07T09:47:39.971Z,5.15
2022-12-07T09:50:15.675Z,5.15
2022-12-07T09:52:44.419Z,5.09
2022-12-07T09:55:26.401Z,5.14
2022-12-07T09:57:53.677Z,5.13
2022-12-07T10:00:22.841Z,5.09
2022-12-07T10:02:51.818Z,5.14
2022-12-07T10:05:24.722Z,5.13
2022-12-07T10:07:51.538Z,5.18
2022-12-07T10:10:32.796Z,5.19
2022-12-07T10:13:04.614Z,5.18
2022-12-07T10:15:44.645Z,5.23
2022-12-07T10:18:20.795Z,5.22
2022-12-07T10:20:49.044Z,5.23
2022-12-07T10:23:19.510Z,5.29
2022-12-07T10:25:46.303Z,5.32
2022-12-07T10:28:16.059Z,5.23
2022-12-07T10:30:58.376Z,5.39
2022-12-07T10:33:39.432Z,5.39
2022-12-07T10:36:19.678Z,5.47
2022-12-07T10:38:49.232Z,5.50
2022-12-07T10:41:15.799Z,5.52
2022-12-07T10:43:54.283Z,5.56
2022-12-07T10:46:38.454Z,5.61
2022-12-07T10:49:36.782Z,5.64
2022-12-07T10:52:14.975Z,5.64
2022-12-07T10:54:53.151Z,5.70
2022-12-07T10:57:34.859Z,5.73
2022-12-07T11:00:01.249Z,5.79
2022-12-07T11:02:47.025Z,5.83
2022-12-07T11:05:29.274Z,5.82
2022-12-07T11:08:04.338Z,5.86
2022-12-07T11:11:09.232Z,5.79
2022-12-07T11:14:08.237Z,5.83
2022-12-07T11:16:42.156Z,5.89
2022-12-07T11:19:30.472Z,5.92
2022-12-07T11:21:58.313Z,5.98
2022-12-07T11:24:31.322Z,5.90
2022-12-07T11:27:01.475Z,5.92
2022-12-07T11:29:58.905Z,5.89
2022-12-07T11:32:48.849Z,5.86
2022-12-07T11:35:25.802Z,5.93
2022-12-07T11:37:59.134Z,5.93
2022-12-07T11:40:30.697Z,5.88
2022-12-07T11:43:01.119Z,5.97
2022-12-07T11:45:30.420Z,5.95
2022-12-07T11:48:01.533Z,5.90
2022-12-07T11:50:34.395Z,6.01
2022-12-07T11:53:00.782Z,6.01
2022-12-07T11:55:46.743Z,5.94
2022-12-07T11:58:34.502Z,6.00
2022-12-07T12:01:30.214Z,5.91
2022-12-07T12:04:05.010Z,5.89
2022-12-07T12:06:32.363Z,5.90
2022-12-07T12:15:43.107Z,6.00
2022-12-07T12:18:20.679Z,6.01
2022-12-07T12:21:02.194Z,6.09
2022-12-07T12:23:46.067Z,6.19
2022-12-07T12:26:24.244Z,6.13
2022-12-07T12:29:00.351Z,6.21
2022-12-07T12:31:37.408Z,6.23
2022-12-07T12:34:25.542Z,6.19
2022-12-07T12:36:52.018Z,6.23
2022-12-07T12:39:22.828Z,6.20
2022-12-07T12:41:49.171Z,6.17
2022-12-07T12:44:15.479Z,6.16
2022-12-07T12:46:55.818Z,6.16
2022-12-07T12:49:22.165Z,6.12
2022-12-07T12:52:14.677Z,6.09
2022-12-07T12:55:00.912Z,6.13
2022-12-07T12:57:30.043Z,6.15
2022-12-07T12:59:56.351Z,6.14
2022-12-07T13:02:26.292Z,6.17
2022-12-07T13:04:58.126Z,6.20
2022-12-07T13:07:52.636Z,6.20
2022-12-07T13:10:31.176Z,6.10
2022-12-07T13:13:03.647Z,6.01
2022-12-07T13:15:42.111Z,5.93
2022-12-07T13:18:37.399Z,5.90
2022-12-07T13:21:09.765Z,5.94
2022-12-07T13:23:53.138Z,5.94
2022-12-07T13:26:31.925Z,5.91
2022-12-07T13:29:10.558Z,5.86
2022-12-07T13:31:42.487Z,5.79
2022-12-07T13:34:29.027Z,5.77
2022-12-07T13:36:55.572Z,5.80
2022-12-07T13:39:24.413Z,5.79
2022-12-07T13:41:57.616Z,5.80
2022-12-07T13:44:26.153Z,5.76
2022-12-07T13:47:07.964Z,5.78
2022-12-07T13:49:42.895Z,5.75
2022-12-07T13:52:19.634Z,5.74
2022-12-07T13:54:47.911Z,5.71
2022-12-07T13:57:14.402Z,5.68
2022-12-07T13:59:40.926Z,5.65
2022-12-07T14:02:32.340Z,5.63
2022-12-07T14:05:11.786Z,5.60
2022-12-07T14:07:59.591Z,5.60
2022-12-07T14:10:30.282Z,5.57
2022-12-07T14:12:57.933Z,5.57
2022-12-07T14:15:44.563Z,5.55
2022-12-07T14:18:28.021Z,5.53
2022-12-07T14:21:04.818Z,5.52
2022-12-07T14:23:31.297Z,5.51
2022-12-07T14:26:14.180Z,5.48
2022-12-07T14:28:41.369Z,5.48
2022-12-07T14:31:26.153Z,5.47
2022-12-07T14:34:00.378Z,5.45
2022-12-07T14:36:26.816Z,5.45
2022-12-07T14:38:55.194Z,5.40
2022-12-07T14:41:48.860Z,5.41
2022-12-07T14:44:24.905Z,5.41
2022-12-07T14:49:40.797Z,5.37
2022-12-07T14:55:01.365Z,5.33
2022-12-07T14:57:28.130Z,5.30
2022-12-07T14:59:54.546Z,5.29
2022-12-07T15:02:20.955Z,5.27
2022-12-07T15:04:47.461Z,5.28
2022-12-07T15:07:20.908Z,5.27
2022-12-07T15:09:48.390Z,5.26
2022-12-07T15:12:14.889Z,5.25
2022-12-07T15:14:41.327Z,5.25
2022-12-07T15:17:16.632Z,5.24
2022-12-07T15:19:49.788Z,5.23
2022-12-07T15:22:16.204Z,5.23
2022-12-07T15:24:42.707Z,5.20
2022-12-07T15:27:09.158Z,5.20
2022-12-07T15:29:35.561Z,5.19
2022-12-07T15:32:02.018Z,5.17
2022-12-07T15:34:34.752Z,5.15
2022-12-07T15:37:05.400Z,5.14
2022-12-07T15:39:31.971Z,5.11
2022-12-07T15:41:58.359Z,5.08
2022-12-07T15:44:43.617Z,5.08
2022-12-07T15:47:10.078Z,5.08
2022-12-07T15:49:36.546Z,5.09
2022-12-07T15:52:03.101Z,5.05
2022-12-07T15:54:30.565Z,5.04
2022-12-07T15:56:57.396Z,5.04
2022-12-07T15:59:24.078Z,5.01
2022-12-07T16:01:50.723Z,5.00
2022-12-07T16:04:17.283Z,4.97
2022-12-07T16:06:43.808Z,4.87
2022-12-07T16:09:10.362Z,4.83
2022-12-07T16:11:36.824Z,4.76
2022-12-07T16:14:03.324Z,4.65
2022-12-07T16:16:29.890Z,4.63
2022-12-07T16:18:56.388Z,4.61
2022-12-07T16:21:25.360Z,4.55
2022-12-07T16:23:52.441Z,4.50
2022-12-07T16:26:21.027Z,4.46
2022-12-07T16:28:50.370Z,4.42
2022-12-07T16:31:19.386Z,4.37
2022-12-07T16:33:46.286Z,4.31
2022-12-07T16:36:14.355Z,4.33
2022-12-07T16:38:40.823Z,4.33
2022-12-07T16:41:07.843Z,4.30
2022-12-07T16:43:34.712Z,4.29
2022-12-07T16:46:01.344Z,4.26
2022-12-07T16:48:28.183Z,4.20
2022-12-07T16:50:54.989Z,4.18
2022-12-07T16:53:23.083Z,4.15
2022-12-07T16:55:50.045Z,4.14
2022-12-07T16:58:17.544Z,4.12
2022-12-07T17:00:45.006Z,4.12
2022-12-07T17:03:17.606Z,4.10
2022-12-07T17:05:47.487Z,4.10
2022-12-07T17:08:14.389Z,4.08
2022-12-07T17:10:43.340Z,4.00
2022-12-07T17:13:28.876Z,4.02
2022-12-07T17:16:06.797Z,4.00
2022-12-07T17:18:35.589Z,3.97
2022-12-07T17:21:06.649Z,3.92
2022-12-07T17:23:33.938Z,3.91
2022-12-07T17:26:08.320Z,3.89
2022-12-07T17:28:35.194Z,3.78
2022-12-07T17:31:06.085Z,3.74
2022-12-07T17:33:33.721Z,3.70
2022-12-07T17:36:00.782Z,3.67
2022-12-07T17:38:28.890Z,3.64
2022-12-07T17:40:55.306Z,3.56
2022-12-07T17:43:21.885Z,3.56
2022-12-07T17:45:48.367Z,3.54
2022-12-07T17:48:14.856Z,3.52
2022-12-07T17:50:59.872Z,3.52
2022-12-07T17:53:26.294Z,3.47
2022-12-07T17:56:26.999Z,3.44
2022-12-07T17:58:42.605Z,3.36
2022-12-07T18:01:10.368Z,3.34
2022-12-07T18:03:37.178Z,3.27
2022-12-07T18:06:03.952Z,3.23
2022-12-07T18:08:30.455Z,3.18
2022-12-07T18:11:00.343Z,3.12
2022-12-07T18:13:38.712Z,3.10
2022-12-07T18:16:13.363Z,3.06
2022-12-07T18:18:40.527Z,3.04
2022-12-07T18:21:14.427Z,3.05
2022-12-07T18:23:41.795Z,3.05
2022-12-07T18:26:08.280Z,3.04
2022-12-07T18:28:34.735Z,3.03
2022-12-07T18:31:16.685Z,2.98
2022-12-07T18:33:44.155Z,2.97
2022-12-07T18:36:10.952Z,2.90
2022-12-07T18:38:37.627Z,2.92
2022-12-07T18:41:04.348Z,2.94
2022-12-07T18:43:30.760Z,2.92
2022-12-07T18:45:57.278Z,2.92
2022-12-07T18:48:24.094Z,2.92
2022-12-07T18:51:04.965Z,2.93
2022-12-07T18:53:32.301Z,2.95
2022-12-07T18:56:10.536Z,2.95
2022-12-07T18:58:37.093Z,2.97
2022-12-07T19:01:03.596Z,2.98
2022-12-07T19:03:33.458Z,2.96
2022-12-07T19:06:06.129Z,2.96
2022-12-07T19:08:34.138Z,2.97
2022-12-07T19:11:23.757Z,2.99
2022-12-07T19:13:50.559Z,2.98
2022-12-07T19:16:17.013Z,2.97
2022-12-07T19:18:50.713Z,2.97
2022-12-07T19:21:17.823Z,2.97
2022-12-07T19:23:44.245Z,3.00
2022-12-07T19:26:10.730Z,3.01
2022-12-07T19:28:37.134Z,3.00
2022-12-07T19:31:07.545Z,3.00
2022-12-07T19:33:34.067Z,3.03
2022-12-07T19:36:00.560Z,3.05
2022-12-07T19:38:27.024Z,3.06
2022-12-07T19:40:53.416Z,3.06
2022-12-07T19:43:19.873Z,3.08
2022-12-07T19:45:47.086Z,3.10
2022-12-07T19:48:13.595Z,3.11
2022-12-07T19:50:39.995Z,3.11
2022-12-07T19:53:06.427Z,3.11
2022-12-07T19:55:32.837Z,3.13
2022-12-07T19:57:59.253Z,3.14
2022-12-07T20:00:25.727Z,3.13
2022-12-07T20:02:52.251Z,3.14
2022-12-07T20:05:18.746Z,3.14
2022-12-07T20:07:45.193Z,3.15
2022-12-07T20:10:11.678Z,3.15
2022-12-07T20:12:56.666Z,3.16
2022-12-07T20:15:23.089Z,3.14
2022-12-07T20:17:49.535Z,3.15
2022-12-07T20:20:16.050Z,3.19
2022-12-07T20:22:42.486Z,3.20
2022-12-07T20:25:09.387Z,3.23
2022-12-07T20:27:35.837Z,3.23
2022-12-07T20:30:02.265Z,3.25
2022-12-07T20:32:28.663Z,3.26
2022-12-07T20:34:55.078Z,3.28
2022-12-07T20:37:21.557Z,3.27
2022-12-07T20:39:47.977Z,3.30
2022-12-07T20:42:33.120Z,3.32
2022-12-07T20:45:02.946Z,3.32
2022-12-07T20:47:30.266Z,3.34
2022-12-07T20:49:56.684Z,3.33
2022-12-07T20:52:23.091Z,3.33
2022-12-07T20:54:49.489Z,3.33
2022-12-07T20:57:15.897Z,3.33
2022-12-07T20:59:42.385Z,3.32
2022-12-07T21:02:12.321Z,3.31
2022-12-07T21:04:38.913Z,3.27
2022-12-07T21:07:05.368Z,3.25
2022-12-07T21:09:31.834Z,3.23
2022-12-07T21:11:58.228Z,3.22
2022-12-07T21:14:24.706Z,3.20
2022-12-07T21:16:51.225Z,3.19
2022-12-07T21:19:17.685Z,3.18
2022-12-07T21:21:44.071Z,3.15
2022-12-07T21:24:11.832Z,3.13
2022-12-07T21:26:38.881Z,3.14
2022-12-07T21:29:07.300Z,3.13
2022-12-07T21:31:34.478Z,3.12
2022-12-07T21:34:04.521Z,3.10
2022-12-07T21:36:31.364Z,3.09
2022-12-07T21:38:57.935Z,3.07
2022-12-07T21:41:32.171Z,3.06
2022-12-07T21:43:58.990Z,3.05
2022-12-07T21:46:32.896Z,3.04
2022-12-07T21:49:05.369Z,3.02
2022-12-07T21:51:32.162Z,3.02
2022-12-07T21:53:59.959Z,3.02
2022-12-07T21:56:31.616Z,3.02
2022-12-07T21:59:06.657Z,3.03
2022-12-07T22:01:37.673Z,3.05
2022-12-07T22:04:06.068Z,3.06
2022-12-07T22:06:33.579Z,3.06
2022-12-07T22:09:00.011Z,3.05
2022-12-07T22:11:26.462Z,3.05
2022-12-07T22:14:11.379Z,3.04
2022-12-07T22:16:39.135Z,3.04
2022-12-07T22:19:06.667Z,3.04
2022-12-07T22:21:33.275Z,3.04
2022-12-07T22:23:59.806Z,3.05
2022-12-07T22:26:27.304Z,3.07
2022-12-07T22:28:53.821Z,3.08
2022-12-07T22:31:21.078Z,3.07
2022-12-07T22:33:48.065Z,3.07
2022-12-07T22:36:14.827Z,3.08
2022-12-07T22:38:42.017Z,3.06
2022-12-07T22:41:29.939Z,3.04
2022-12-07T22:43:57.209Z,3.04
2022-12-07T22:46:24.185Z,3.04
2022-12-07T22:48:50.929Z,3.01
2022-12-07T22:51:20.569Z,3.00
2022-12-07T22:53:47.011Z,3.00
2022-12-07T22:56:13.499Z,2.98
2022-12-07T22:58:40.076Z,2.96
2022-12-07T23:01:10.988Z,2.96
2022-12-07T23:03:37.941Z,2.96
2022-12-07T23:06:16.469Z,2.98
2022-12-07T23:08:43.158Z,2.98
2022-12-07T23:11:37.805Z,2.98
2022-12-07T23:14:09.336Z,2.97
2022-12-07T23:16:35.861Z,2.99
2022-12-07T23:19:02.328Z,3.01
2022-12-07T23:21:28.756Z,3.01
2022-12-07T23:23:55.166Z,3.02
2022-12-07T23:26:21.570Z,3.01
2022-12-07T23:28:48.025Z,3.02
2022-12-07T23:31:16.260Z,3.00
2022-12-07T23:33:43.193Z,3.01
2022-12-07T23:36:12.195Z,3.01
2022-12-07T23:38:39.211Z,3.01
2022-12-07T23:41:10.780Z,3.01
2022-12-07T23:43:37.800Z,3.00
2022-12-07T23:46:08.204Z,2.99
2022-12-07T23:48:35.638Z,2.97
2022-12-07T23:51:02.055Z,2.95
2022-12-07T23:53:31.408Z,2.95
2022-12-07T23:55:57.837Z,2.94
2022-12-07T23:58:24.278Z,2.93
